Orbital elements of COSMOS 970 DEB
| Launched | 20 December 1977 |
| Flight ended | – |
| Launch site | Tyuratam Missile and Space Center, Kazakhstan (Also known as Baikonur Cosmodrome) |
| Owner | Commonwealth of Independent States (former USSR) |
| NORAD ID | 12864 |
| Date fetched |
Epoch osculation |
Inc. [°] |
Ecc. | RA asc node [hr] |
Arg Peri. [°] |
Mean anom [°] |
Mean motion [rev/day] |
Abs. mag |
| Date fetched |
Epoch osculation |
Inc. [°] |
Ecc. | RA asc node [hr] |
Arg Peri. [°] |
Mean anom [°] |
Mean motion [rev/day] |
Abs. mag |
| 2026 May 03 17:57 | 2026 Apr 30 03:09:35 | 65.8325 | 0.00936 | 23.6570 | 3.2863 | 161.9736 | 13.94418 | – |
| 2026 May 02 17:57 | 2026 Apr 30 03:09:35 | 65.8325 | 0.00936 | 23.6570 | 3.2863 | 161.9736 | 13.94418 | – |
| 2026 May 01 17:56 | 2026 Apr 30 03:09:35 | 65.8325 | 0.00936 | 23.6570 | 3.2863 | 161.9736 | 13.94418 | – |
| 2026 Apr 30 17:56 | 2026 Apr 30 03:09:35 | 65.8325 | 0.00936 | 23.6570 | 3.2863 | 161.9736 | 13.94418 | – |
| 2026 Apr 29 17:57 | 2026 Apr 22 20:51:05 | 65.8329 | 0.00931 | 0.8931 | 6.7096 | 161.9736 | 13.94418 | – |
| 2026 Apr 28 17:56 | 2026 Apr 22 20:51:05 | 65.8329 | 0.00931 | 0.8931 | 6.7096 | 161.9736 | 13.94418 | – |
| 2026 Apr 27 17:58 | 2026 Apr 22 20:51:05 | 65.8329 | 0.00931 | 0.8931 | 6.7096 | 161.9736 | 13.94418 | – |
| 2026 Apr 26 17:58 | 2026 Apr 22 20:51:05 | 65.8329 | 0.00931 | 0.8931 | 6.7096 | 161.9736 | 13.94418 | – |
| 2026 Apr 25 17:58 | 2026 Apr 22 20:51:05 | 65.8329 | 0.00931 | 0.8931 | 6.7096 | 161.9736 | 13.94418 | – |
| 2026 Apr 24 17:59 | 2026 Apr 22 20:51:05 | 65.8329 | 0.00931 | 0.8931 | 6.7096 | 161.9736 | 13.94418 | – |
| 2026 Apr 23 17:57 | 2026 Apr 19 05:28:51 | 65.8327 | 0.00928 | 1.5128 | 8.3806 | 161.9736 | 13.94418 | – |
| 2026 Apr 22 17:57 | 2026 Apr 19 05:28:51 | 65.8327 | 0.00928 | 1.5128 | 8.3806 | 161.9736 | 13.94418 | – |
| 2026 Apr 21 17:57 | 2026 Apr 19 05:28:51 | 65.8327 | 0.00928 | 1.5128 | 8.3806 | 161.9736 | 13.94418 | – |
| 2026 Apr 20 17:57 | 2026 Apr 19 05:28:51 | 65.8327 | 0.00928 | 1.5128 | 8.3806 | 161.9736 | 13.94418 | – |
| 2026 Apr 19 17:58 | 2026 Apr 19 05:28:51 | 65.8327 | 0.00928 | 1.5128 | 8.3806 | 161.9736 | 13.94418 | – |
| 2026 Apr 18 17:56 | 2026 Apr 13 06:35:12 | 65.8321 | 0.00923 | 2.5261 | 11.2395 | 161.9736 | 13.94418 | – |
| 2026 Apr 16 17:57 | 2026 Apr 13 06:35:12 | 65.8321 | 0.00923 | 2.5261 | 11.2395 | 161.9736 | 13.94418 | – |
| 2026 Apr 14 17:57 | 2026 Apr 13 06:35:12 | 65.8321 | 0.00923 | 2.5261 | 11.2395 | 161.9736 | 13.94418 | – |
| 2026 Apr 13 17:57 | 2026 Apr 13 06:35:12 | 65.8321 | 0.00923 | 2.5261 | 11.2395 | 161.9736 | 13.94418 | – |
| 2026 Apr 12 17:57 | 2026 Apr 08 07:48:51 | 65.8315 | 0.00918 | 3.3684 | 13.5957 | 161.9736 | 13.94418 | – |
| 2026 Apr 11 17:57 | 2026 Apr 08 07:48:51 | 65.8315 | 0.00918 | 3.3684 | 13.5957 | 161.9736 | 13.94418 | – |
| 2026 Apr 10 17:58 | 2026 Apr 08 07:48:51 | 65.8315 | 0.00918 | 3.3684 | 13.5957 | 161.9736 | 13.94418 | – |
| 2026 Apr 09 18:01 | 2026 Apr 08 07:48:51 | 65.8315 | 0.00918 | 3.3684 | 13.5957 | 161.9736 | 13.94418 | – |
| 2026 Apr 08 17:57 | 2026 Apr 08 07:48:51 | 65.8315 | 0.00918 | 3.3684 | 13.5957 | 161.9736 | 13.94418 | – |
| 2026 Apr 07 17:57 | 2026 Apr 02 01:39:47 | 65.8308 | 0.00911 | 4.4333 | 16.6598 | 161.9736 | 13.94418 | – |
| 2026 Apr 06 17:57 | 2026 Apr 02 01:39:47 | 65.8308 | 0.00911 | 4.4333 | 16.6598 | 161.9736 | 13.94418 | – |